Time;durP1;ratioP1;P1;durP2;ratioP2;P2;SDS_P1;SDS_P2;PMS_P1;PMS_P2;Temp;Humidity;BMP_temperature;BMP_pressure;BME280_temperature;BME280_humidity;BME280_pressure;Samples;Min_cycle;Max_cycle;Signal;HPM_P1;HPM_P2
2023/12/29 00:00:54;;;;;;;9.88;5.63;;;;;;;;;;5022344;28;20155;-56
2023/12/29 00:03:20;;;;;;;10.52;6.15;;;;;;;;;;5017750;28;20095;-53
2023/12/29 00:05:46;;;;;;;20.63;6.88;;;;;;;;;;5026745;28;20053;-58
2023/12/29 00:08:12;;;;;;;9.38;5.47;;;;;;;;;;5026178;28;20535;-58
2023/12/29 00:10:38;;;;;;;12.23;6.20;;;;;;;;;;5004413;28;20030;-55
2023/12/29 00:13:04;;;;;;;9.38;5.50;;;;;;;;;;5023109;28;20025;-53
2023/12/29 00:15:30;;;;;;;9.27;5.50;;;;;;;;;;5026455;28;20103;-56
2023/12/29 00:17:56;;;;;;;13.82;6.20;;;;;;;;;;5004234;28;20491;-57
2023/12/29 00:20:22;;;;;;;9.70;5.72;;;;;;;;;;5025966;28;20057;-59
2023/12/29 00:22:48;;;;;;;10.40;6.07;;;;;;;;;;5025522;28;20115;-59
2023/12/29 00:25:14;;;;;;;9.82;5.80;;;;;;;;;;5025583;28;20200;-59
2023/12/29 00:27:40;;;;;;;10.32;6.00;;;;;;;;;;5025824;28;20050;-56
2023/12/29 00:30:06;;;;;;;10.00;5.88;;;;;;;;;;5026238;28;20068;-54
2023/12/29 00:32:32;;;;;;;9.70;5.80;;;;;;;;;;5025714;28;20211;-59
2023/12/29 00:34:58;;;;;;;10.15;5.90;;;;;;;;;;5007650;28;20250;-57
2023/12/29 00:37:24;;;;;;;10.00;5.82;;;;;;;;;;5025242;28;20029;-57
2023/12/29 00:39:51;;;;;;;10.10;5.90;;;;;;;;;;5005567;28;20538;-52
2023/12/29 00:42:17;;;;;;;9.75;5.68;;;;;;;;;;5026209;28;20025;-58
2023/12/29 00:44:43;;;;;;;12.65;6.45;;;;;;;;;;5026959;28;20186;-59
2023/12/29 00:47:09;;;;;;;10.23;5.82;;;;;;;;;;5027989;28;20029;-59
2023/12/29 00:49:35;;;;;;;9.60;5.55;;;;;;;;;;5027199;28;20499;-60
2023/12/29 00:52:02;;;;;;;12.40;6.22;;;;;;;;;;5027860;28;20025;-57
2023/12/29 00:54:28;;;;;;;9.50;5.60;;;;;;;;;;5019791;28;20025;-57
2023/12/29 00:56:54;;;;;;;15.48;6.00;;;;;;;;;;5027758;28;20048;-57
2023/12/29 00:59:20;;;;;;;12.70;6.05;;;;;;;;;;5027995;28;20028;-57
2023/12/29 01:01:46;;;;;;;9.60;5.70;;;;;;;;;;5028111;28;20115;-58
2023/12/29 01:04:12;;;;;;;9.65;5.65;;;;;;;;;;5028463;28;20383;-58
2023/12/29 01:06:38;;;;;;;10.45;5.80;;;;;;;;;;5028428;28;20487;-58
2023/12/29 01:09:04;;;;;;;9.93;5.82;;;;;;;;;;5028225;28;20057;-57
2023/12/29 01:11:30;;;;;;;9.55;5.60;;;;;;;;;;5028095;28;20075;-57
2023/12/29 01:13:56;;;;;;;14.57;6.40;;;;;;;;;;5028196;28;20041;-52
2023/12/29 01:16:22;;;;;;;9.32;5.50;;;;;;;;;;5028070;28;20033;-60
2023/12/29 01:18:48;;;;;;;9.30;5.50;;;;;;;;;;5028085;28;20029;-59
2023/12/29 01:21:14;;;;;;;9.25;5.45;;;;;;;;;;5017566;28;20041;-56
2023/12/29 01:23:40;;;;;;;11.23;6.10;;;;;;;;;;5005601;28;20014;-58
2023/12/29 01:26:06;;;;;;;10.80;6.03;;;;;;;;;;5029716;28;20412;-58
2023/12/29 01:28:32;;;;;;;10.32;6.78;;;;;;;;;;5032139;28;20109;-58
2023/12/29 01:30:58;;;;;;;10.73;5.80;;;;;;;;;;5031806;28;20132;-67
2023/12/29 01:33:24;;;;;;;10.30;6.38;;;;;;;;;;5031939;28;20468;-59
2023/12/29 01:35:50;;;;;;;11.63;5.80;;;;;;;;;;5031937;28;20076;-58
2023/12/29 01:38:16;;;;;;;9.98;5.90;;;;;;;;;;5031943;28;20029;-57
2023/12/29 01:40:46;;;;;;;10.48;5.80;;;;;;;;;;5031898;28;20082;-56
2023/12/29 01:43:12;;;;;;;11.15;6.00;;;;;;;;;;5031895;28;20068;-59
2023/12/29 01:45:39;;;;;;;9.45;5.57;;;;;;;;;;5031705;28;20053;-58
2023/12/29 01:48:06;;;;;;;9.80;5.60;;;;;;;;;;5031688;28;20464;-56
2023/12/29 01:50:32;;;;;;;8.90;5.25;;;;;;;;;;5031761;28;20411;-58
2023/12/29 01:52:58;;;;;;;9.57;5.60;;;;;;;;;;5031489;28;20025;-58
2023/12/29 01:55:25;;;;;;;9.13;5.40;;;;;;;;;;5031424;28;20021;-55
2023/12/29 01:57:51;;;;;;;10.98;5.63;;;;;;;;;;5031521;28;20033;-58
2023/12/29 02:00:18;;;;;;;10.40;6.05;;;;;;;;;;5031313;28;20475;-58
2023/12/29 02:02:44;;;;;;;12.95;7.50;;;;;;;;;;5031262;28;20030;-55
2023/12/29 02:05:13;;;;;;;15.07;10.95;;;;;;;;;;5031328;28;20026;-57
2023/12/29 02:07:40;;;;;;;27.20;24.75;;;;;;;;;;5031491;28;20394;-60
2023/12/29 02:10:06;;;;;;;24.15;22.05;;;;;;;;;;5011156;28;20022;-59
2023/12/29 02:12:33;;;;;;;28.30;26.00;;;;;;;;;;5010370;28;20018;-59
2023/12/29 02:14:59;;;;;;;32.30;29.70;;;;;;;;;;5027999;28;20113;-59
2023/12/29 02:17:27;;;;;;;36.88;34.08;;;;;;;;;;5031168;28;20167;-57
2023/12/29 02:19:53;;;;;;;34.23;31.63;;;;;;;;;;5010302;28;20049;-56
2023/12/29 02:22:19;;;;;;;36.30;33.63;;;;;;;;;;5030251;28;20484;-58
2023/12/29 02:24:46;;;;;;;33.35;30.95;;;;;;;;;;5031190;28;20071;-59
2023/12/29 02:27:28;;;;;;;28.90;26.70;;;;;;;;;;5011945;28;20236;-59
2023/12/29 02:30:14;;;;;;;28.05;25.85;;;;;;;;;;5031165;28;20499;-57
2023/12/29 02:32:42;;;;;;;28.38;26.17;;;;;;;;;;4999404;28;20443;-59
2023/12/29 02:35:08;;;;;;;;;;;;;;;;;;5031750;28;20475;-58
2023/12/29 02:37:36;;;;;;;22.02;20.13;;;;;;;;;;5031361;28;19905;-60
2023/12/29 02:40:03;;;;;;;19.55;17.75;;;;;;;;;;5031314;28;20039;-58
2023/12/29 02:42:29;;;;;;;19.45;17.65;;;;;;;;;;5009994;28;20034;-58
2023/12/29 02:44:55;;;;;;;18.60;16.80;;;;;;;;;;5026991;28;20044;-58
2023/12/29 02:47:21;;;;;;;20.50;17.33;;;;;;;;;;5030968;28;20069;-59
2023/12/29 02:49:49;;;;;;;18.08;16.27;;;;;;;;;;5031308;28;20088;-59
2023/12/29 02:52:15;;;;;;;17.60;15.90;;;;;;;;;;5031158;28;20045;-59
2023/12/29 02:54:41;;;;;;;17.40;15.70;;;;;;;;;;5031165;28;20041;-60
2023/12/29 02:57:07;;;;;;;17.27;15.57;;;;;;;;;;5030806;28;20029;-60
2023/12/29 02:59:33;;;;;;;16.27;14.57;;;;;;;;;;5031192;28;20495;-56
2023/12/29 03:01:59;;;;;;;16.05;14.35;;;;;;;;;;5030598;28;20112;-58
2023/12/29 03:04:25;;;;;;;15.10;13.25;;;;;;;;;;5001793;28;20710;-58
2023/12/29 03:06:51;;;;;;;16.08;13.23;;;;;;;;;;5025549;28;20083;-55
2023/12/29 03:09:17;;;;;;;14.90;12.75;;;;;;;;;;5030534;28;20475;-58
2023/12/29 03:11:43;;;;;;;14.75;12.25;;;;;;;;;;5030375;28;20037;-55
2023/12/29 03:14:09;;;;;;;14.85;12.52;;;;;;;;;;5030136;28;20075;-59
2023/12/29 03:16:35;;;;;;;24.13;14.35;;;;;;;;;;5030546;28;20018;-58
2023/12/29 03:19:00;;;;;;;15.52;12.40;;;;;;;;;;5021655;28;20113;-56
2023/12/29 03:21:26;;;;;;;14.93;12.40;;;;;;;;;;5001098;28;20025;-55
2023/12/29 03:23:52;;;;;;;14.48;11.48;;;;;;;;;;5025566;28;20029;-57
2023/12/29 03:26:18;;;;;;;14.60;11.60;;;;;;;;;;5029643;28;20010;-57
2023/12/29 03:28:44;;;;;;;14.30;11.00;;;;;;;;;;5029595;28;20032;-56
2023/12/29 03:31:10;;;;;;;14.50;11.45;;;;;;;;;;5029538;28;20100;-59
2023/12/29 03:33:36;;;;;;;14.50;11.52;;;;;;;;;;5029825;28;20380;-58
2023/12/29 03:36:02;;;;;;;14.70;12.23;;;;;;;;;;5029501;28;20030;-57
2023/12/29 03:38:28;;;;;;;15.48;13.05;;;;;;;;;;5029571;28;20022;-55
2023/12/29 03:40:54;;;;;;;15.20;13.32;;;;;;;;;;5029488;28;20106;-58
2023/12/29 03:43:20;;;;;;;16.23;14.10;;;;;;;;;;5029511;28;20088;-58
2023/12/29 03:45:46;;;;;;;17.80;14.38;;;;;;;;;;5028671;28;20030;-60
2023/12/29 03:48:12;;;;;;;15.90;14.20;;;;;;;;;;5029263;28;20483;-59
2023/12/29 03:50:38;;;;;;;16.58;14.88;;;;;;;;;;5028870;28;20029;-55
2023/12/29 03:53:04;;;;;;;17.70;15.10;;;;;;;;;;5008828;28;20072;-58
2023/12/29 03:55:30;;;;;;;19.13;17.23;;;;;;;;;;5029291;28;20048;-54
2023/12/29 03:57:56;;;;;;;16.50;14.75;;;;;;;;;;5029968;28;20049;-57
2023/12/29 04:00:22;;;;;;;16.02;14.32;;;;;;;;;;5029166;28;20100;-54
2023/12/29 04:02:48;;;;;;;16.08;14.35;;;;;;;;;;5029130;28;20026;-58
2023/12/29 04:05:14;;;;;;;15.20;13.57;;;;;;;;;;5010199;28;20034;-57
2023/12/29 04:07:40;;;;;;;18.15;13.60;;;;;;;;;;5029188;28;20053;-56
2023/12/29 04:10:08;;;;;;;14.77;12.38;;;;;;;;;;5029006;28;20458;-57
2023/12/29 04:12:34;;;;;;;15.00;12.77;;;;;;;;;;5029042;28;20021;-56
2023/12/29 04:15:00;;;;;;;14.52;11.70;;;;;;;;;;5029209;28;20071;-55
2023/12/29 04:17:26;;;;;;;14.40;10.95;;;;;;;;;;5029421;28;20131;-57
2023/12/29 04:19:53;;;;;;;13.80;9.23;;;;;;;;;;5008276;28;20037;-54
2023/12/29 04:22:18;;;;;;;13.35;8.10;;;;;;;;;;5027967;28;20036;-56
2023/12/29 04:24:44;;;;;;;13.45;7.75;;;;;;;;;;5028989;28;20395;-56
2023/12/29 04:27:10;;;;;;;11.20;6.60;;;;;;;;;;5028537;28;20033;-60
2023/12/29 04:29:36;;;;;;;10.68;6.40;;;;;;;;;;5028536;28;20024;-55
2023/12/29 04:32:02;;;;;;;12.70;6.43;;;;;;;;;;5028056;28;20119;-57
2023/12/29 04:34:28;;;;;;;9.40;5.60;;;;;;;;;;5028419;28;20029;-57
2023/12/29 04:36:54;;;;;;;9.70;5.50;;;;;;;;;;5007386;28;20021;-57
2023/12/29 04:39:20;;;;;;;9.95;5.70;;;;;;;;;;5027890;28;20502;-56
2023/12/29 04:41:46;;;;;;;8.95;5.57;;;;;;;;;;5028441;28;20037;-59
2023/12/29 04:44:12;;;;;;;10.38;6.13;;;;;;;;;;5009041;28;20487;-57
2023/12/29 04:46:38;;;;;;;10.10;5.80;;;;;;;;;;5028452;28;20116;-57
2023/12/29 04:49:04;;;;;;;11.00;6.68;;;;;;;;;;5008037;28;20447;-59
2023/12/29 04:51:30;;;;;;;10.13;5.50;;;;;;;;;;5028326;28;20026;-57
2023/12/29 04:53:56;;;;;;;9.50;5.55;;;;;;;;;;5028430;28;20040;-56
2023/12/29 04:56:22;;;;;;;10.25;5.70;;;;;;;;;;5027090;28;20086;-57
2023/12/29 04:58:48;;;;;;;9.75;6.07;;;;;;;;;;5028205;28;20029;-56
2023/12/29 05:01:14;;;;;;;9.00;5.30;;;;;;;;;;5028022;28;20021;-57
2023/12/29 05:03:40;;;;;;;9.52;5.65;;;;;;;;;;5028413;28;20068;-56
2023/12/29 05:06:06;;;;;;;9.10;5.40;;;;;;;;;;5010450;28;20034;-56
2023/12/29 05:08:32;;;;;;;9.32;5.50;;;;;;;;;;5028542;28;20049;-59
2023/12/29 05:10:58;;;;;;;12.18;6.88;;;;;;;;;;5028138;28;20055;-53
2023/12/29 05:13:24;;;;;;;10.00;5.70;;;;;;;;;;5028280;28;20021;-59
2023/12/29 05:15:50;;;;;;;9.70;5.60;;;;;;;;;;5028045;28;20026;-56
2023/12/29 05:18:16;;;;;;;10.43;5.85;;;;;;;;;;5009623;28;20037;-57
2023/12/29 05:20:43;;;;;;;9.00;5.32;;;;;;;;;;5006879;28;20030;-57
2023/12/29 05:23:09;;;;;;;10.65;6.22;;;;;;;;;;5026050;28;20391;-57
2023/12/29 05:25:35;;;;;;;10.95;7.13;;;;;;;;;;5028300;28;20027;-59
2023/12/29 05:28:00;;;;;;;11.30;6.90;;;;;;;;;;5028171;28;20030;-57
2023/12/29 05:30:27;;;;;;;10.68;6.28;;;;;;;;;;5028340;28;20490;-57
2023/12/29 05:32:53;;;;;;;10.15;6.00;;;;;;;;;;5021015;28;20033;-56
2023/12/29 05:35:20;;;;;;;10.15;5.93;;;;;;;;;;5008601;28;20029;-56
2023/12/29 05:37:46;;;;;;;10.27;6.05;;;;;;;;;;5008629;28;20042;-59
2023/12/29 05:40:12;;;;;;;12.45;6.70;;;;;;;;;;5008565;28;20091;-58
2023/12/29 05:42:38;;;;;;;10.57;6.20;;;;;;;;;;5008067;28;20389;-58
2023/12/29 05:45:04;;;;;;;10.30;6.00;;;;;;;;;;5025054;28;20083;-57
2023/12/29 05:47:30;;;;;;;11.70;6.50;;;;;;;;;;5020106;28;20033;-57
2023/12/29 05:49:56;;;;;;;13.05;6.47;;;;;;;;;;5028074;28;20498;-59
2023/12/29 05:52:23;;;;;;;11.68;6.63;;;;;;;;;;5027776;28;20372;-59
2023/12/29 05:54:49;;;;;;;11.02;6.40;;;;;;;;;;5006569;28;20037;-56
2023/12/29 05:57:15;;;;;;;10.75;6.25;;;;;;;;;;5026220;28;20483;-58
2023/12/29 05:59:41;;;;;;;13.52;6.50;;;;;;;;;;5027686;28;20025;-58
2023/12/29 06:02:06;;;;;;;10.75;6.20;;;;;;;;;;5027292;28;20029;-58
2023/12/29 06:04:32;;;;;;;10.35;6.03;;;;;;;;;;5027373;28;20411;-59
2023/12/29 06:06:58;;;;;;;11.40;6.20;;;;;;;;;;5027489;28;20029;-59
2023/12/29 06:09:24;;;;;;;10.50;6.15;;;;;;;;;;5030818;28;20126;-57
2023/12/29 06:11:51;;;;;;;10.23;6.00;;;;;;;;;;5031132;28;20061;-59
2023/12/29 06:14:17;;;;;;;11.10;6.38;;;;;;;;;;5012295;28;20025;-59
2023/12/29 06:16:43;;;;;;;10.90;6.25;;;;;;;;;;5023047;28;20044;-58
2023/12/29 06:19:12;;;;;;;11.13;6.40;;;;;;;;;;5013551;28;20502;-58
2023/12/29 06:21:42;;;;;;;10.18;6.00;;;;;;;;;;5011303;28;20080;-58
2023/12/29 06:24:08;;;;;;;11.35;6.20;;;;;;;;;;5011537;28;20037;-56
2023/12/29 06:26:35;;;;;;;10.50;6.20;;;;;;;;;;5011367;28;20030;-56
2023/12/29 06:29:01;;;;;;;10.82;6.20;;;;;;;;;;5006285;28;20041;-56
2023/12/29 06:31:27;;;;;;;19.23;7.45;;;;;;;;;;5030766;28;20027;-57
2023/12/29 06:33:53;;;;;;;10.25;6.00;;;;;;;;;;5009829;28;20121;-57
2023/12/29 06:36:19;;;;;;;10.30;6.18;;;;;;;;;;5029915;28;20458;-58
2023/12/29 06:38:48;;;;;;;10.57;6.45;;;;;;;;;;5030896;28;20025;-58
2023/12/29 06:41:14;;;;;;;11.10;6.55;;;;;;;;;;5031154;28;20052;-56
2023/12/29 06:43:40;;;;;;;10.25;6.15;;;;;;;;;;5030805;28;20025;-57
2023/12/29 06:46:08;;;;;;;10.80;6.70;;;;;;;;;;5030446;28;20048;-57
2023/12/29 06:48:34;;;;;;;11.53;6.50;;;;;;;;;;5030593;28;20052;-60
2023/12/29 06:51:00;;;;;;;11.05;6.45;;;;;;;;;;5030569;28;20025;-58
2023/12/29 06:53:26;;;;;;;11.85;7.40;;;;;;;;;;5030813;28;20487;-59
2023/12/29 06:55:52;;;;;;;11.10;6.28;;;;;;;;;;5030868;28;20021;-55
2023/12/29 06:58:18;;;;;;;18.42;7.95;;;;;;;;;;5030355;28;20633;-59
2023/12/29 07:00:44;;;;;;;12.32;6.95;;;;;;;;;;5030523;28;20040;-58
2023/12/29 07:03:12;;;;;;;11.20;6.22;;;;;;;;;;5030687;28;20040;-61
2023/12/29 07:05:38;;;;;;;12.55;6.50;;;;;;;;;;5030476;28;20025;-56
2023/12/29 07:08:04;;;;;;;12.68;6.80;;;;;;;;;;5030331;28;20044;-57
2023/12/29 07:10:31;;;;;;;12.07;6.80;;;;;;;;;;5009011;28;20028;-57
2023/12/29 07:12:57;;;;;;;13.15;6.85;;;;;;;;;;5026137;28;20017;-56
2023/12/29 07:15:23;;;;;;;10.80;6.35;;;;;;;;;;5029781;28;20312;-58
2023/12/29 07:17:49;;;;;;;11.82;6.60;;;;;;;;;;5030090;28;20084;-59
2023/12/29 07:20:15;;;;;;;11.65;7.18;;;;;;;;;;5028927;28;20438;-57
2023/12/29 07:22:41;;;;;;;14.00;6.90;;;;;;;;;;5016205;28;20037;-56
2023/12/29 07:25:07;;;;;;;10.68;6.30;;;;;;;;;;5010185;28;20075;-58
2023/12/29 07:27:33;;;;;;;17.63;6.70;;;;;;;;;;5010213;28;20438;-56
2023/12/29 07:29:59;;;;;;;12.95;6.53;;;;;;;;;;5009944;28;20029;-57
2023/12/29 07:32:25;;;;;;;10.65;6.22;;;;;;;;;;5013256;28;20017;-58
2023/12/29 07:34:51;;;;;;;10.65;6.50;;;;;;;;;;5029698;28;20395;-58
2023/12/29 07:37:17;;;;;;;10.90;6.32;;;;;;;;;;5029605;28;20057;-57
2023/12/29 07:39:43;;;;;;;10.77;6.28;;;;;;;;;;5029597;28;20479;-55
2023/12/29 07:42:10;;;;;;;10.93;6.32;;;;;;;;;;5009610;28;20510;-58
2023/12/29 07:44:36;;;;;;;20.92;6.32;;;;;;;;;;5029275;28;20022;-58
2023/12/29 07:47:02;;;;;;;10.02;5.82;;;;;;;;;;5028903;28;20625;-59
2023/12/29 07:49:28;;;;;;;12.35;6.50;;;;;;;;;;5029064;28;20029;-55
2023/12/29 07:51:54;;;;;;;9.77;5.78;;;;;;;;;;5029401;28;20052;-50
2023/12/29 07:54:20;;;;;;;10.52;6.05;;;;;;;;;;5029190;28;20471;-59
2023/12/29 07:56:45;;;;;;;9.60;5.70;;;;;;;;;;5029085;28;20081;-58
2023/12/29 07:59:11;;;;;;;10.82;6.40;;;;;;;;;;5011172;28;20030;-57
2023/12/29 08:01:39;;;;;;;10.05;5.90;;;;;;;;;;5009009;28;20045;-54
2023/12/29 08:04:06;;;;;;;14.18;7.88;;;;;;;;;;5025194;28;20479;-56
2023/12/29 08:06:32;;;;;;;14.65;11.50;;;;;;;;;;5013389;28;20510;-58
2023/12/29 08:08:58;;;;;;;22.48;20.48;;;;;;;;;;5028999;28;20118;-57
2023/12/29 08:11:24;;;;;;;27.85;25.55;;;;;;;;;;5025411;28;20026;-51
2023/12/29 08:13:50;;;;;;;27.33;25.02;;;;;;;;;;5009468;28;20037;-54
2023/12/29 08:16:19;;;;;;;27.90;25.60;;;;;;;;;;5008812;28;20088;-57
2023/12/29 08:18:47;;;;;;;29.00;26.70;;;;;;;;;;5009214;28;20080;-54
2023/12/29 08:21:19;;;;;;;31.42;29.02;;;;;;;;;;5028303;28;20540;-58
2023/12/29 08:23:49;;;;;;;31.20;28.02;;;;;;;;;;5008162;28;20026;-55
2023/12/29 08:26:15;;;;;;;30.65;28.25;;;;;;;;;;5027220;28;20479;-52
2023/12/29 08:28:41;;;;;;;30.50;28.20;;;;;;;;;;5007729;28;20054;-55
2023/12/29 08:31:08;;;;;;;29.25;26.95;;;;;;;;;;5025437;28;20616;-56
2023/12/29 08:33:34;;;;;;;28.35;26.15;;;;;;;;;;5028878;28;20021;-58
2023/12/29 08:36:01;;;;;;;27.90;25.70;;;;;;;;;;5028379;28;20025;-62
2023/12/29 08:38:27;;;;;;;31.30;28.90;;;;;;;;;;5002899;28;20029;-55
2023/12/29 08:40:53;;;;;;;31.30;28.90;;;;;;;;;;5028216;28;20081;-58
2023/12/29 08:43:21;;;;;;;29.67;27.38;;;;;;;;;;5028168;28;20073;-59
2023/12/29 08:45:48;;;;;;;32.77;30.37;;;;;;;;;;5028187;28;20163;-51
2023/12/29 08:48:14;;;;;;;29.85;27.20;;;;;;;;;;5028182;28;20052;-53
2023/12/29 08:50:39;;;;;;;28.70;26.50;;;;;;;;;;5028461;28;20446;-54
2023/12/29 08:53:06;;;;;;;28.77;26.27;;;;;;;;;;5027964;28;20025;-55
2023/12/29 08:55:31;;;;;;;25.60;23.50;;;;;;;;;;5006289;28;20018;-53
2023/12/29 08:57:58;;;;;;;24.70;22.70;;;;;;;;;;5024676;28;20064;-52
2023/12/29 09:00:24;;;;;;;19.42;17.63;;;;;;;;;;5027926;28;20058;-55
2023/12/29 09:02:50;;;;;;;18.48;16.67;;;;;;;;;;5027919;28;20094;-55
2023/12/29 09:05:16;;;;;;;18.40;16.60;;;;;;;;;;5028003;28;20039;-55
2023/12/29 09:07:42;;;;;;;18.35;16.55;;;;;;;;;;5028020;28;20024;-55
2023/12/29 09:10:10;;;;;;;18.70;16.90;;;;;;;;;;5028099;28;20040;-55
2023/12/29 09:12:36;;;;;;;18.45;16.65;;;;;;;;;;5027902;28;20503;-57
2023/12/29 09:15:02;;;;;;;18.20;16.42;;;;;;;;;;5006983;28;20472;-53
2023/12/29 09:17:29;;;;;;;19.23;17.40;;;;;;;;;;5020128;28;20040;-55
2023/12/29 09:19:55;;;;;;;21.02;19.13;;;;;;;;;;5028197;28;20022;-54
2023/12/29 09:22:21;;;;;;;20.20;18.40;;;;;;;;;;5027494;28;20037;-58
2023/12/29 09:24:47;;;;;;;20.25;18.45;;;;;;;;;;5027877;28;20030;-59
2023/12/29 09:27:13;;;;;;;19.77;17.98;;;;;;;;;;5019919;28;20396;-58
2023/12/29 09:29:40;;;;;;;20.35;18.55;;;;;;;;;;5027968;28;20022;-56
2023/12/29 09:32:06;;;;;;;19.80;18.00;;;;;;;;;;5027629;28;20017;-52
2023/12/29 09:34:32;;;;;;;19.45;17.65;;;;;;;;;;5027861;28;20100;-52
2023/12/29 09:36:58;;;;;;;20.23;18.23;;;;;;;;;;5027599;28;20022;-50
2023/12/29 09:39:24;;;;;;;20.00;18.20;;;;;;;;;;5008446;28;20018;-53
2023/12/29 09:41:52;;;;;;;19.70;17.90;;;;;;;;;;5007805;28;20058;-54
2023/12/29 09:44:20;;;;;;;19.40;17.60;;;;;;;;;;5010659;28;20068;-55
2023/12/29 09:46:50;;;;;;;21.30;19.40;;;;;;;;;;5011894;28;20030;-54
2023/12/29 09:49:16;;;;;;;17.70;15.90;;;;;;;;;;5011499;28;20044;-54
2023/12/29 09:51:43;;;;;;;16.52;14.82;;;;;;;;;;5011345;28;20119;-55
2023/12/29 09:54:09;;;;;;;16.60;14.90;;;;;;;;;;5011445;28;20400;-54
2023/12/29 09:56:35;;;;;;;17.02;15.32;;;;;;;;;;5011582;28;20018;-52
2023/12/29 09:59:02;;;;;;;15.75;14.05;;;;;;;;;;5006515;28;20064;-56
2023/12/29 10:01:29;;;;;;;16.17;14.48;;;;;;;;;;5023460;28;20427;-55
2023/12/29 10:03:56;;;;;;;15.68;13.98;;;;;;;;;;5030660;28;20037;-52
2023/12/29 10:06:24;;;;;;;16.50;14.48;;;;;;;;;;5009878;28;20131;-58
2023/12/29 10:08:50;;;;;;;15.32;12.75;;;;;;;;;;5011329;28;20026;-55
2023/12/29 10:11:18;;;;;;;14.85;12.35;;;;;;;;;;5010982;28;20036;-58
2023/12/29 10:13:46;;;;;;;14.75;12.20;;;;;;;;;;5011254;28;20060;-54
2023/12/29 10:16:12;;;;;;;14.60;11.55;;;;;;;;;;5011041;28;20258;-56
2023/12/29 10:18:47;;;;;;;15.52;11.27;;;;;;;;;;5011048;28;20451;-56
2023/12/29 10:21:18;;;;;;;14.35;11.00;;;;;;;;;;5010797;28;20687;-52
2023/12/29 10:23:49;;;;;;;15.23;10.70;;;;;;;;;;5010924;28;20026;-53
2023/12/29 10:26:15;;;;;;;13.82;9.45;;;;;;;;;;5010874;28;20104;-54
2023/12/29 10:28:41;;;;;;;13.60;8.80;;;;;;;;;;5010856;28;20045;-55
2023/12/29 10:31:10;;;;;;;13.38;8.10;;;;;;;;;;5010467;28;20022;-52
2023/12/29 10:33:36;;;;;;;;;;;;;;;;;;5011195;28;20029;-53
2023/12/29 10:36:03;;;;;;;11.52;6.70;;;;;;;;;;5010729;28;19932;-51
2023/12/29 10:38:30;;;;;;;10.63;6.22;;;;;;;;;;5010587;28;20032;-58
2023/12/29 10:41:11;;;;;;;11.20;6.38;;;;;;;;;;5010730;28;20384;-53
2023/12/29 10:43:37;;;;;;;10.43;6.10;;;;;;;;;;5024053;28;20100;-55
2023/12/29 10:46:08;;;;;;;26.80;6.88;;;;;;;;;;5030204;28;20033;-52
2023/12/29 10:48:34;;;;;;;10.75;6.13;;;;;;;;;;5030249;28;20080;-54
2023/12/29 10:51:03;;;;;;;10.20;6.00;;;;;;;;;;5030204;28;20025;-53
2023/12/29 10:53:30;;;;;;;12.50;7.47;;;;;;;;;;5026472;28;20030;-54
2023/12/29 10:55:58;;;;;;;12.43;7.18;;;;;;;;;;5026006;28;20029;-53
2023/12/29 10:58:27;;;;;;;12.60;7.32;;;;;;;;;;5030451;28;20113;-55
2023/12/29 11:00:52;;;;;;;;;;;;;;;;;;5030663;28;20451;-52
2023/12/29 11:03:18;;;;;;;11.18;6.50;;;;;;;;;;5029993;28;19909;-57
2023/12/29 11:05:44;;;;;;;10.60;6.10;;;;;;;;;;5030033;28;20028;-56
2023/12/29 11:08:21;;;;;;;10.00;5.88;;;;;;;;;;5009655;28;20543;-53
2023/12/29 11:10:50;;;;;;;9.27;5.50;;;;;;;;;;5029668;28;20026;-53
2023/12/29 11:13:16;;;;;;;10.07;6.03;;;;;;;;;;5030032;28;20085;-54
2023/12/29 11:15:44;;;;;;;9.50;5.72;;;;;;;;;;5029796;28;20022;-51
2023/12/29 11:18:12;;;;;;;9.10;5.38;;;;;;;;;;5030099;28;20029;-53
2023/12/29 11:20:39;;;;;;;8.45;4.97;;;;;;;;;;5029635;28;20495;-52
2023/12/29 11:23:07;;;;;;;9.20;5.40;;;;;;;;;;5029479;28;20102;-57
2023/12/29 11:25:33;;;;;;;8.85;5.22;;;;;;;;;;5008486;28;20061;-52
2023/12/29 11:28:00;;;;;;;9.23;5.47;;;;;;;;;;5025972;28;20029;-49
2023/12/29 11:30:27;;;;;;;9.52;5.63;;;;;;;;;;5018121;28;20044;-55
2023/12/29 11:33:00;;;;;;;9.23;5.45;;;;;;;;;;5009462;28;20030;-53
2023/12/29 11:35:37;;;;;;;9.18;5.38;;;;;;;;;;5029214;28;20018;-52
2023/12/29 11:38:12;;;;;;;9.40;5.50;;;;;;;;;;5029774;28;20029;-53
2023/12/29 11:40:42;;;;;;;9.90;5.30;;;;;;;;;;5029422;28;20033;-50
2023/12/29 11:43:13;;;;;;;9.40;5.40;;;;;;;;;;5029684;28;20028;-53
2023/12/29 11:45:39;;;;;;;9.00;5.30;;;;;;;;;;5029953;28;20529;-50
2023/12/29 11:48:05;;;;;;;9.10;5.40;;;;;;;;;;5011322;28;20199;-55
2023/12/29 11:50:31;;;;;;;9.13;5.50;;;;;;;;;;5029420;28;20176;-55
2023/12/29 11:52:58;;;;;;;8.40;5.00;;;;;;;;;;5029199;28;20395;-56
2023/12/29 11:55:29;;;;;;;8.70;5.05;;;;;;;;;;5029561;28;20036;-55
2023/12/29 11:57:55;;;;;;;8.90;5.22;;;;;;;;;;5029672;28;20068;-54
2023/12/29 12:00:21;;;;;;;8.45;5.00;;;;;;;;;;5029609;28;20068;-54
2023/12/29 12:02:51;;;;;;;10.02;6.18;;;;;;;;;;5029362;28;20073;-50
2023/12/29 12:05:37;;;;;;;9.50;5.32;;;;;;;;;;5007470;28;20030;-54
2023/12/29 12:08:03;;;;;;;9.48;5.57;;;;;;;;;;5009326;28;20034;-56
2023/12/29 12:10:33;;;;;;;9.15;5.40;;;;;;;;;;5009875;28;20042;-52
2023/12/29 12:12:59;;;;;;;9.02;5.40;;;;;;;;;;5009630;28;20443;-51
2023/12/29 12:15:29;;;;;;;9.30;5.50;;;;;;;;;;5009200;28;20022;-51
2023/12/29 12:17:55;;;;;;;9.20;5.30;;;;;;;;;;5009449;28;20025;-55
2023/12/29 12:20:21;;;;;;;9.40;5.55;;;;;;;;;;5009232;28;20029;-54
2023/12/29 12:22:50;;;;;;;10.32;6.15;;;;;;;;;;5009119;28;20049;-54
2023/12/29 12:25:16;;;;;;;9.98;5.80;;;;;;;;;;5009405;28;20056;-53
2023/12/29 12:27:43;;;;;;;8.80;5.25;;;;;;;;;;5009283;28;20377;-54
2023/12/29 12:30:09;;;;;;;9.35;5.55;;;;;;;;;;5009152;28;20034;-54
2023/12/29 12:32:36;;;;;;;9.27;5.40;;;;;;;;;;4991293;28;20022;-54
2023/12/29 12:35:03;;;;;;;9.23;5.45;;;;;;;;;;5011689;28;20032;-57
2023/12/29 12:37:29;;;;;;;13.95;5.70;;;;;;;;;;5017154;28;20026;-53
2023/12/29 12:39:56;;;;;;;10.98;5.85;;;;;;;;;;5027216;28;20076;-55
2023/12/29 12:42:22;;;;;;;9.05;5.40;;;;;;;;;;5050892;23;20278;-47
2023/12/29 12:45:06;;;;;;;9.38;5.47;;;;;;;;;;5056412;28;20544;-47
2023/12/29 12:47:34;;;;;;;10.93;5.80;;;;;;;;;;5054665;28;20400;-50
2023/12/29 12:50:01;;;;;;;9.60;5.60;;;;;;;;;;5068479;28;20021;-47
2023/12/29 12:52:30;;;;;;;9.70;5.63;;;;;;;;;;5069832;28;20017;-47
2023/12/29 12:54:56;;;;;;;9.45;5.55;;;;;;;;;;5069765;28;20020;-49
2023/12/29 12:57:22;;;;;;;10.55;6.00;;;;;;;;;;5068889;28;20115;-47
2023/12/29 12:59:50;;;;;;;10.10;5.90;;;;;;;;;;5070035;28;20032;-48
2023/12/29 13:02:16;;;;;;;10.65;6.07;;;;;;;;;;5068081;28;20028;-48
2023/12/29 13:04:42;;;;;;;10.73;5.97;;;;;;;;;;5041282;28;20130;-49
2023/12/29 13:07:09;;;;;;;9.60;5.70;;;;;;;;;;5030072;28;20546;-46
2023/12/29 13:09:36;;;;;;;10.15;5.70;;;;;;;;;;5030308;28;20029;-51
2023/12/29 13:12:09;;;;;;;9.38;5.57;;;;;;;;;;5029741;28;20017;-44
2023/12/29 13:14:35;;;;;;;10.57;5.88;;;;;;;;;;5030654;28;20100;-46
2023/12/29 13:17:05;;;;;;;10.90;6.53;;;;;;;;;;5029985;28;20537;-43
2023/12/29 13:19:34;;;;;;;9.30;5.50;;;;;;;;;;5033967;28;20109;-48
2023/12/29 13:22:00;;;;;;;9.27;5.47;;;;;;;;;;5033796;28;20021;-50
2023/12/29 13:24:26;;;;;;;9.48;5.60;;;;;;;;;;5033957;28;20092;-46
2023/12/29 13:26:55;;;;;;;11.02;6.05;;;;;;;;;;5033852;28;20475;-47
2023/12/29 13:29:25;;;;;;;9.23;5.43;;;;;;;;;;5032313;28;20017;-52
2023/12/29 13:31:53;;;;;;;9.95;5.65;;;;;;;;;;5033400;28;20416;-48
2023/12/29 13:34:23;;;;;;;9.60;5.65;;;;;;;;;;5033184;28;20060;-52
2023/12/29 13:36:53;;;;;;;9.98;5.60;;;;;;;;;;5033307;28;20029;-48
2023/12/29 13:39:32;;;;;;;8.90;5.25;;;;;;;;;;5033126;28;20064;-49
2023/12/29 13:41:59;;;;;;;13.77;6.30;;;;;;;;;;5032891;28;20087;-51
2023/12/29 13:44:26;;;;;;;14.00;5.65;;;;;;;;;;5033602;28;20029;-49
2023/12/29 13:46:53;;;;;;;13.75;6.22;;;;;;;;;;5033378;28;20060;-49
2023/12/29 13:49:19;;;;;;;8.93;5.25;;;;;;;;;;5033105;28;20156;-46
2023/12/29 13:51:45;;;;;;;10.02;5.70;;;;;;;;;;5032978;28;20018;-46
2023/12/29 13:54:11;;;;;;;8.80;5.20;;;;;;;;;;5033493;28;20037;-47
2023/12/29 13:56:38;;;;;;;12.75;5.70;;;;;;;;;;5033245;28;20025;-49
2023/12/29 13:59:05;;;;;;;9.10;5.38;;;;;;;;;;5033076;28;20030;-50
2023/12/29 14:01:37;;;;;;;11.48;5.50;;;;;;;;;;5033061;28;20036;-49
2023/12/29 14:04:04;;;;;;;9.00;5.30;;;;;;;;;;5032498;28;20033;-48
2023/12/29 14:06:32;;;;;;;8.90;5.28;;;;;;;;;;5033164;28;20111;-48
2023/12/29 14:08:58;;;;;;;9.57;5.68;;;;;;;;;;5033217;28;20026;-51
2023/12/29 14:11:24;;;;;;;9.20;5.40;;;;;;;;;;5033141;28;20472;-51
2023/12/29 14:13:50;;;;;;;9.40;5.63;;;;;;;;;;5033033;28;20079;-51
2023/12/29 14:16:20;;;;;;;10.00;5.70;;;;;;;;;;5032979;28;20037;-51
2023/12/29 14:18:49;;;;;;;9.50;5.55;;;;;;;;;;5033000;28;20040;-48
2023/12/29 14:21:26;;;;;;;10.30;5.70;;;;;;;;;;5033030;28;20134;-47
2023/12/29 14:24:11;;;;;;;8.40;5.00;;;;;;;;;;5032744;28;20380;-49
2023/12/29 14:26:38;;;;;;;8.25;4.93;;;;;;;;;;5032787;28;20038;-50
2023/12/29 14:29:05;;;;;;;8.00;4.75;;;;;;;;;;5032501;28;20021;-47